createdAt,value
2023-03-10T00:02:23.059Z,7.54
2023-03-10T00:07:24.663Z,7.55
2023-03-10T00:12:27.834Z,7.58
2023-03-10T00:17:29.528Z,7.61
2023-03-10T00:22:31.087Z,7.65
2023-03-10T00:27:33.257Z,7.69
2023-03-10T00:32:35.908Z,7.74
2023-03-10T00:37:39.141Z,7.76
2023-03-10T00:42:41.497Z,7.79
2023-03-10T00:47:43.070Z,7.86
2023-03-10T00:52:45.644Z,7.88
2023-03-10T00:57:47.459Z,7.95
2023-03-10T01:02:51.497Z,7.97
2023-03-10T01:07:53.483Z,8.02
2023-03-10T01:12:55.138Z,8.07
2023-03-10T01:17:56.733Z,8.09
2023-03-10T01:22:58.646Z,8.11
2023-03-10T01:28:00.223Z,8.11
2023-03-10T01:33:01.913Z,8.14
2023-03-10T01:38:04.302Z,8.17
2023-03-10T01:43:33.298Z,8.18
2023-03-10T01:48:36.249Z,8.20
2023-03-10T01:53:38.709Z,8.26
2023-03-10T01:58:42.993Z,8.28
2023-03-10T02:03:49.645Z,8.29
2023-03-10T02:08:56.762Z,8.30
2023-03-10T02:14:01.640Z,8.33
2023-03-10T02:19:06.516Z,8.31
2023-03-10T02:24:39.838Z,8.35
2023-03-10T02:29:58.898Z,8.39
2023-03-10T02:35:01.635Z,8.39
2023-03-10T02:40:29.684Z,8.42
2023-03-10T02:45:33.354Z,8.45
2023-03-10T02:50:38.186Z,8.56
2023-03-10T02:55:40.417Z,8.81
2023-03-10T03:00:44.687Z,8.98
2023-03-10T03:05:49.534Z,9.11
2023-03-10T03:10:51.701Z,9.15
2023-03-10T03:15:54.186Z,9.18
2023-03-10T03:20:56.439Z,9.22
2023-03-10T03:25:58.120Z,9.28
2023-03-10T03:31:01.946Z,9.25
2023-03-10T03:36:05.868Z,9.31
2023-03-10T03:41:08.457Z,9.39
2023-03-10T03:46:12.452Z,9.42
2023-03-10T03:51:14.906Z,9.41
2023-03-10T03:56:18.154Z,9.36
2023-03-10T04:01:20.668Z,9.38
2023-03-10T04:06:27.518Z,9.31
2023-03-10T04:11:30.596Z,9.30
2023-03-10T04:16:32.393Z,9.28
2023-03-10T04:21:38.088Z,9.27
2023-03-10T04:26:40.491Z,9.24
2023-03-10T04:31:43.747Z,9.19
2023-03-10T04:36:48.314Z,9.17
2023-03-10T04:41:50.767Z,9.17
2023-03-10T04:46:52.626Z,9.14
2023-03-10T04:51:55.389Z,9.13
2023-03-10T04:56:57.345Z,9.18
2023-03-10T05:01:59.288Z,9.18
2023-03-10T05:07:01.257Z,9.22
2023-03-10T05:12:12.613Z,9.38
2023-03-10T05:17:15.631Z,9.45
2023-03-10T05:22:18.673Z,9.50
2023-03-10T05:27:21.943Z,9.59
2023-03-10T05:32:24.412Z,9.63
2023-03-10T05:37:27.201Z,9.66
2023-03-10T05:42:29.919Z,9.66
2023-03-10T05:47:33.797Z,9.69
2023-03-10T05:52:42.153Z,9.72
2023-03-10T05:57:45.118Z,9.74
2023-03-10T06:02:47.156Z,9.82
2023-03-10T06:07:48.751Z,9.89
2023-03-10T06:12:50.349Z,9.99
2023-03-10T06:17:52.030Z,10.00
2023-03-10T06:22:53.625Z,9.96
2023-03-10T06:27:55.203Z,10.01
2023-03-10T06:32:57.001Z,10.00
2023-03-10T06:37:58.732Z,10.02
2023-03-10T06:43:00.326Z,10.11
2023-03-10T06:48:02.257Z,10.13
2023-03-10T06:53:11.760Z,10.18
2023-03-10T06:58:13.376Z,10.25
2023-03-10T07:03:15.009Z,10.23
2023-03-10T07:08:16.616Z,10.23
2023-03-10T07:13:18.178Z,10.32
2023-03-10T07:18:19.842Z,10.36
2023-03-10T07:23:21.660Z,10.43
2023-03-10T07:28:24.156Z,10.38
2023-03-10T07:33:25.917Z,10.42
2023-03-10T07:38:27.512Z,10.48
2023-03-10T07:43:29.210Z,10.48
2023-03-10T07:48:30.902Z,10.57
2023-03-10T07:53:33.177Z,10.62
2023-03-10T07:58:35.614Z,10.67
2023-03-10T08:03:37.310Z,10.79
2023-03-10T08:08:39.365Z,10.77
2023-03-10T08:13:41.778Z,10.84
2023-03-10T08:18:43.881Z,10.89
2023-03-10T08:23:45.549Z,11.00
2023-03-10T08:28:47.523Z,11.10
2023-03-10T08:33:49.292Z,11.14
2023-03-10T08:38:52.678Z,11.25
2023-03-10T08:43:55.865Z,11.29
2023-03-10T08:48:57.863Z,11.43
2023-03-10T08:53:59.993Z,11.47
2023-03-10T08:59:01.700Z,11.55
2023-03-10T09:04:04.994Z,11.67
2023-03-10T09:09:08.469Z,11.75
2023-03-10T09:14:11.509Z,11.83
2023-03-10T09:19:13.104Z,11.90
2023-03-10T09:24:14.635Z,12.08
2023-03-10T09:29:16.355Z,12.20
2023-03-10T09:34:17.975Z,12.16
2023-03-10T09:39:19.622Z,12.16
2023-03-10T09:44:45.673Z,12.18
2023-03-10T09:49:54.555Z,12.15
2023-03-10T09:55:03.636Z,12.32
2023-03-10T10:00:09.077Z,12.45
2023-03-10T10:05:20.075Z,12.56
2023-03-10T10:10:27.370Z,12.64
2023-03-10T10:15:34.942Z,12.73
2023-03-10T10:20:43.953Z,12.85
2023-03-10T10:25:45.834Z,13.13
2023-03-10T10:30:47.617Z,13.31
2023-03-10T10:36:02.963Z,13.29
2023-03-10T10:41:07.846Z,13.26
2023-03-10T10:46:11.190Z,13.28
2023-03-10T10:51:29.177Z,13.31
2023-03-10T10:56:31.092Z,13.38
2023-03-10T11:01:57.385Z,13.33
2023-03-10T11:07:11.459Z,13.29
2023-03-10T11:12:26.731Z,13.34
2023-03-10T11:17:30.358Z,13.38
2023-03-10T11:22:48.720Z,13.43
2023-03-10T11:28:20.923Z,13.49
2023-03-10T11:33:28.386Z,13.53
2023-03-10T11:38:43.286Z,13.48
2023-03-10T11:43:55.730Z,13.47
2023-03-10T11:49:17.327Z,13.53
2023-03-10T11:54:25.107Z,13.59
2023-03-10T11:59:31.000Z,13.63
2023-03-10T12:04:44.593Z,13.66
2023-03-10T12:09:57.565Z,13.72
2023-03-10T12:15:00.889Z,13.74
2023-03-10T12:20:16.036Z,13.80
2023-03-10T12:25:30.001Z,13.85
2023-03-10T12:30:52.024Z,13.85
2023-03-10T12:35:55.798Z,13.74
2023-03-10T12:40:58.744Z,13.66
2023-03-10T12:46:02.073Z,13.62
2023-03-10T12:51:13.434Z,13.66
2023-03-10T12:56:14.926Z,13.72
2023-03-10T13:01:20.461Z,13.72
2023-03-10T13:06:33.751Z,13.73
2023-03-10T13:11:41.605Z,13.76
2023-03-10T13:16:56.570Z,13.86
2023-03-10T13:21:58.538Z,13.94
2023-03-10T13:27:07.598Z,13.96
2023-03-10T13:32:18.444Z,13.91
2023-03-10T13:37:20.098Z,13.95
2023-03-10T13:42:40.932Z,13.97
2023-03-10T13:47:44.821Z,13.98
2023-03-10T13:52:59.508Z,14.02
2023-03-10T13:58:02.068Z,14.04
2023-03-10T14:03:04.636Z,14.09
2023-03-10T14:08:06.909Z,14.12
2023-03-10T14:13:40.241Z,14.09
2023-03-10T14:18:42.965Z,14.09
2023-03-10T14:23:44.559Z,14.02
2023-03-10T14:28:46.260Z,13.81
2023-03-10T14:33:48.284Z,13.44
2023-03-10T14:38:49.923Z,12.75
2023-03-10T14:43:51.733Z,12.26
2023-03-10T14:48:53.549Z,11.87
2023-03-10T14:53:55.160Z,11.65
2023-03-10T14:58:58.324Z,11.89
2023-03-10T15:03:59.928Z,11.60
2023-03-10T15:09:01.569Z,11.68
2023-03-10T15:14:21.461Z,11.78
2023-03-10T15:19:24.970Z,11.99
2023-03-10T15:24:26.613Z,12.07
2023-03-10T15:29:28.225Z,12.13
2023-03-10T15:34:29.942Z,11.99
2023-03-10T15:39:33.796Z,11.81
2023-03-10T15:44:36.275Z,11.96
2023-03-10T15:49:38.729Z,11.99
2023-03-10T15:54:40.829Z,11.91
2023-03-10T15:59:42.443Z,11.95
2023-03-10T16:04:44.392Z,11.96
2023-03-10T16:09:47.366Z,11.97
2023-03-10T16:14:49.237Z,11.63
2023-03-10T16:19:51.158Z,11.69
2023-03-10T16:24:52.781Z,11.53
2023-03-10T16:29:54.416Z,11.66
2023-03-10T16:34:56.045Z,11.66
2023-03-10T16:39:57.953Z,11.68
2023-03-10T16:44:59.510Z,11.52
2023-03-10T16:50:01.133Z,11.58
2023-03-10T16:55:05.092Z,11.73
2023-03-10T17:00:09.245Z,11.69
2023-03-10T17:05:10.887Z,11.78
2023-03-10T17:10:12.527Z,11.54
2023-03-10T17:15:14.105Z,11.43
2023-03-10T17:20:17.182Z,11.43
2023-03-10T17:25:18.787Z,11.33
2023-03-10T17:30:20.624Z,11.35
2023-03-10T17:35:22.216Z,11.13
2023-03-10T17:40:24.020Z,11.07
2023-03-10T17:45:25.613Z,11.25
2023-03-10T17:50:27.254Z,11.01
2023-03-10T17:55:28.816Z,10.90
2023-03-10T18:00:30.470Z,10.81
2023-03-10T18:05:32.204Z,10.76
2023-03-10T18:10:35.391Z,10.72
2023-03-10T18:15:37.575Z,10.85
2023-03-10T18:20:40.457Z,10.80
2023-03-10T18:25:46.009Z,10.70
2023-03-10T18:30:49.214Z,10.68
2023-03-10T18:35:50.913Z,10.69
2023-03-10T18:41:03.535Z,10.63
2023-03-10T18:46:06.729Z,10.55
2023-03-10T18:51:08.534Z,10.46
2023-03-10T18:56:10.393Z,10.37
2023-03-10T19:01:13.770Z,10.51
2023-03-10T19:06:15.372Z,10.42
2023-03-10T19:11:17.160Z,10.50
2023-03-10T19:16:18.922Z,10.30
2023-03-10T19:21:22.868Z,10.47
2023-03-10T19:26:25.078Z,10.37
2023-03-10T19:31:26.797Z,10.33
2023-03-10T19:36:29.520Z,10.21
2023-03-10T19:41:31.240Z,10.31
2023-03-10T19:46:32.922Z,10.26
2023-03-10T19:51:34.614Z,10.22
2023-03-10T19:56:36.260Z,10.25
2023-03-10T20:01:40.157Z,10.17
2023-03-10T20:06:41.981Z,10.01
2023-03-10T20:11:44.019Z,10.00
2023-03-10T20:16:45.827Z,10.15
2023-03-10T20:21:47.621Z,10.21
2023-03-10T20:26:49.339Z,10.13
2023-03-10T20:31:51.050Z,10.14
2023-03-10T20:36:52.632Z,10.12
2023-03-10T20:41:54.384Z,10.04
2023-03-10T20:46:55.958Z,9.98
2023-03-10T20:51:57.610Z,10.18
2023-03-10T20:56:59.173Z,9.68
2023-03-10T21:02:00.755Z,9.67
2023-03-10T21:07:02.385Z,9.83
2023-03-10T21:12:04.311Z,10.07
2023-03-10T21:17:06.875Z,9.86
2023-03-10T21:22:08.830Z,9.77
2023-03-10T21:27:10.483Z,10.06
2023-03-10T21:32:12.299Z,9.80
2023-03-10T21:37:14.163Z,9.88
2023-03-10T21:42:16.073Z,9.58
2023-03-10T21:47:17.677Z,9.70
2023-03-10T21:52:19.244Z,9.42
2023-03-10T21:57:20.846Z,9.19
2023-03-10T22:02:30.317Z,9.52
2023-03-10T22:07:32.579Z,9.34
2023-03-10T22:12:34.409Z,9.37
2023-03-10T22:17:35.946Z,9.47
2023-03-10T22:22:37.523Z,9.50
2023-03-10T22:27:39.218Z,9.50
2023-03-10T22:32:41.544Z,9.30
2023-03-10T22:37:43.581Z,9.16
2023-03-10T22:42:45.748Z,9.30
2023-03-10T22:47:48.142Z,8.91
2023-03-10T22:52:49.870Z,9.05
2023-03-10T22:57:52.580Z,9.05
2023-03-10T23:02:54.184Z,9.13
2023-03-10T23:07:56.223Z,9.21
2023-03-10T23:13:06.440Z,9.12
2023-03-10T23:18:08.703Z,8.81
2023-03-10T23:23:14.614Z,8.97
2023-03-10T23:28:17.574Z,8.77
2023-03-10T23:33:22.063Z,8.75
2023-03-10T23:38:25.230Z,8.81
2023-03-10T23:43:27.284Z,8.45
2023-03-10T23:48:29.086Z,8.28
2023-03-10T23:53:30.853Z,7.94
2023-03-10T23:58:32.620Z,7.97
